Time;durP1;ratioP1;P1;durP2;ratioP2;P2;SDS_P1;SDS_P2;PMS_P1;PMS_P2;Temp;Humidity;BMP_temperature;BMP_pressure;BME280_temperature;BME280_humidity;BME280_pressure;Samples;Min_cycle;Max_cycle;Signal;HPM_P1;HPM_P2
2024/02/07 00:00:25;;;;;;;6.57;2.35;;;16.40;99.90;;;;;;5060161;28;20471;-60
2024/02/07 00:02:51;;;;;;;12.38;2.55;;;16.50;99.90;;;;;;5060815;28;20872;-60
2024/02/07 00:05:18;;;;;;;17.77;3.00;;;16.50;99.90;;;;;;5057782;28;20159;-60
2024/02/07 00:07:45;;;;;;;17.30;2.67;;;16.70;99.90;;;;;;5058028;28;20537;-61
2024/02/07 00:10:12;;;;;;;13.00;2.72;;;16.70;99.90;;;;;;5058243;28;20525;-60
2024/02/07 00:12:39;;;;;;;12.43;2.53;;;16.70;99.90;;;;;;5062617;28;20076;-62
2024/02/07 00:15:06;;;;;;;5.53;2.22;;;16.70;99.90;;;;;;5059331;28;20108;-59
2024/02/07 00:17:32;;;;;;;12.20;2.03;;;16.70;99.90;;;;;;5059040;28;20065;-61
2024/02/07 00:19:59;;;;;;;8.60;1.60;;;16.70;99.90;;;;;;5056997;28;20124;-61
2024/02/07 00:22:25;;;;;;;8.82;2.20;;;16.70;99.90;;;;;;5059837;28;20084;-60
2024/02/07 00:24:51;;;;;;;7.43;1.98;;;16.70;99.90;;;;;;5057487;28;20066;-60
2024/02/07 00:27:18;;;;;;;10.93;5.93;;;16.70;99.90;;;;;;5057935;28;20100;-62
2024/02/07 00:29:44;;;;;;;8.02;1.75;;;16.60;99.90;;;;;;5057260;28;20501;-61
2024/02/07 00:32:11;;;;;;;7.53;2.10;;;16.60;99.90;;;;;;5060002;28;20191;-60
2024/02/07 00:34:37;;;;;;;11.85;2.00;;;16.60;99.90;;;;;;5060785;28;20081;-61
2024/02/07 00:37:04;;;;;;;14.73;2.60;;;16.70;99.90;;;;;;5058253;28;20073;-59
2024/02/07 00:39:30;;;;;;;13.93;2.30;;;16.70;99.90;;;;;;5057704;28;20147;-62
2024/02/07 00:41:57;;;;;;;4.32;2.35;;;16.70;99.90;;;;;;5060419;28;20159;-63
2024/02/07 00:44:23;;;;;;;5.55;1.90;;;16.70;99.90;;;;;;5061340;28;20080;-62
2024/02/07 00:46:50;;;;;;;7.78;1.70;;;16.60;99.90;;;;;;5058283;28;20077;-64
2024/02/07 00:49:16;;;;;;;10.95;4.18;;;16.50;99.90;;;;;;5058462;28;20116;-65
2024/02/07 00:51:43;;;;;;;2.10;0.60;;;16.40;99.90;;;;;;5055241;28;21281;-61
2024/02/07 00:54:10;;;;;;;4.55;0.70;;;16.30;99.90;;;;;;5058928;28;20721;-67
2024/02/07 00:56:36;;;;;;;4.47;0.65;;;16.20;99.90;;;;;;5056268;28;20104;-62
2024/02/07 00:59:03;;;;;;;4.82;0.73;;;16.00;99.90;;;;;;5059879;28;20580;-61
2024/02/07 01:01:29;;;;;;;2.63;0.60;;;15.90;99.90;;;;;;5057302;28;20444;-68
2024/02/07 01:03:56;;;;;;;4.45;0.70;;;15.70;99.90;;;;;;5059340;28;20079;-62
2024/02/07 01:06:22;;;;;;;1.52;0.70;;;15.70;99.90;;;;;;5055548;28;20097;-60
2024/02/07 01:08:49;;;;;;;2.53;0.88;;;15.60;99.90;;;;;;5059928;28;20081;-60
2024/02/07 01:11:15;;;;;;;1.15;0.52;;;15.60;99.90;;;;;;5059566;28;20168;-63
2024/02/07 01:13:42;;;;;;;2.05;0.70;;;15.60;99.90;;;;;;5061367;28;20413;-63
2024/02/07 01:16:09;;;;;;;2.45;0.70;;;15.60;99.90;;;;;;5058397;28;20073;-59
2024/02/07 01:18:37;;;;;;;1.30;0.60;;;15.60;99.90;;;;;;5057489;28;20172;-61
2024/02/07 01:21:06;;;;;;;3.10;1.15;;;15.60;99.90;;;;;;5059582;28;20069;-59
2024/02/07 01:23:32;;;;;;;7.72;0.80;;;15.60;99.90;;;;;;5060319;28;20103;-62
2024/02/07 01:25:59;;;;;;;5.20;1.00;;;15.50;99.90;;;;;;5060664;28;20069;-60
2024/02/07 01:28:25;;;;;;;3.90;0.95;;;15.50;99.90;;;;;;5068812;28;20169;-61
2024/02/07 01:30:52;;;;;;;4.53;1.20;;;15.50;99.90;;;;;;5061376;28;20116;-59
2024/02/07 01:33:18;;;;;;;3.47;1.30;;;15.50;99.90;;;;;;5065835;28;20678;-60
2024/02/07 01:35:46;;;;;;;3.55;1.30;;;15.50;99.90;;;;;;5062102;28;20077;-60
2024/02/07 01:38:17;;;;;;;6.68;2.20;;;15.50;99.90;;;;;;5063849;28;20083;-60
2024/02/07 01:40:48;;;;;;;13.60;3.60;;;15.50;99.90;;;;;;5061564;28;20127;-61
2024/02/07 01:43:16;;;;;;;9.65;2.20;;;15.60;99.90;;;;;;5064653;28;20091;-63
2024/02/07 01:45:43;;;;;;;14.38;4.18;;;15.50;99.90;;;;;;5061103;28;20505;-61
2024/02/07 01:48:10;;;;;;;5.60;1.70;;;15.50;99.90;;;;;;5059930;28;20202;-60
2024/02/07 01:50:41;;;;;;;7.60;1.70;;;15.50;99.90;;;;;;5060065;28;20108;-61
2024/02/07 01:53:10;;;;;;;6.32;1.52;;;15.50;99.90;;;;;;5061691;28;20088;-60
2024/02/07 01:55:36;;;;;;;9.73;1.80;;;15.50;99.90;;;;;;5057772;28;20080;-60
2024/02/07 01:58:07;;;;;;;10.10;1.80;;;15.40;99.90;;;;;;5059515;28;20541;-60
2024/02/07 02:00:34;;;;;;;5.18;1.00;;;15.40;99.90;;;;;;5062502;28;21213;-67
2024/02/07 02:03:01;;;;;;;8.52;2.90;;;15.30;99.90;;;;;;5061985;28;20513;-61
2024/02/07 02:05:28;;;;;;;2.97;0.90;;;15.30;99.90;;;;;;5064555;28;20590;-61
2024/02/07 02:07:54;;;;;;;4.15;2.65;;;15.30;99.90;;;;;;5064607;28;20100;-60
2024/02/07 02:10:21;;;;;;;5.88;1.77;;;15.30;99.90;;;;;;5061944;28;20084;-68
2024/02/07 02:12:48;;;;;;;4.57;1.42;;;15.20;99.90;;;;;;5058365;28;20161;-69
2024/02/07 02:15:14;;;;;;;7.80;1.40;;;15.20;99.90;;;;;;5061376;28;20094;-61
2024/02/07 02:17:41;;;;;;;10.73;2.15;;;15.20;99.90;;;;;;5065956;28;20517;-60
2024/02/07 02:20:09;;;;;;;8.95;2.20;;;15.30;99.90;;;;;;5061354;28;20235;-63
2024/02/07 02:22:54;;;;;;;9.52;2.03;;;15.20;99.90;;;;;;5060825;28;20081;-60
2024/02/07 02:25:38;;;;;;;7.40;1.83;;;15.30;99.90;;;;;;5060302;28;20106;-59
2024/02/07 02:28:42;;;;;;;9.65;3.03;;;15.30;99.90;;;;;;5059920;28;20298;-65
2024/02/07 02:31:13;;;;;;;7.20;3.30;;;15.30;99.90;;;;;;5059190;28;20100;-65
2024/02/07 02:33:41;;;;;;;14.55;4.45;;;15.30;99.90;;;;;;5058885;28;20080;-60
2024/02/07 02:36:10;;;;;;;7.68;4.38;;;15.30;99.90;;;;;;5059985;28;20521;-62
2024/02/07 02:38:36;;;;;;;8.27;4.68;;;15.40;99.90;;;;;;5063705;28;20528;-61
2024/02/07 02:41:08;;;;;;;15.45;8.25;;;15.30;99.90;;;;;;5062054;28;20164;-60
2024/02/07 02:43:37;;;;;;;15.18;5.47;;;15.30;99.90;;;;;;5059300;28;20081;-60
2024/02/07 02:46:04;;;;;;;8.32;2.53;;;15.30;99.90;;;;;;5060062;28;20193;-60
2024/02/07 02:48:31;;;;;;;7.70;1.73;;;15.20;99.90;;;;;;5059236;28;20116;-66
2024/02/07 02:50:59;;;;;;;8.13;2.22;;;15.30;99.90;;;;;;5060705;28;20218;-62
2024/02/07 02:53:25;;;;;;;17.17;2.47;;;15.30;99.90;;;;;;5061941;28;20554;-60
2024/02/07 02:55:52;;;;;;;8.35;2.38;;;15.30;99.90;;;;;;5060964;28;20081;-60
2024/02/07 02:58:18;;;;;;;10.32;2.30;;;15.30;99.90;;;;;;5063339;28;20072;-62
2024/02/07 03:00:50;;;;;;;11.88;2.70;;;15.40;99.90;;;;;;5059178;28;20073;-60
2024/02/07 03:03:16;;;;;;;9.55;2.85;;;15.30;99.90;;;;;;5061011;28;20202;-60
2024/02/07 03:10:40;;;;;;;14.75;3.08;;;15.40;99.90;;;;;;5061473;28;20117;-59
2024/02/07 03:13:08;;;;;;;10.98;3.40;;;15.40;99.90;;;;;;5059082;28;20069;-63
2024/02/07 03:15:35;;;;;;;26.83;4.35;;;15.40;99.90;;;;;;5061605;28;20108;-60
2024/02/07 03:18:01;;;;;;;15.68;3.58;;;15.40;99.90;;;;;;5059703;28;20623;-60
2024/02/07 03:20:28;;;;;;;12.30;4.00;;;15.40;99.90;;;;;;5062693;28;20072;-60
2024/02/07 03:22:55;;;;;;;13.63;3.50;;;15.20;99.90;;;;;;5061475;28;20076;-60
2024/02/07 03:25:21;;;;;;;19.10;4.20;;;15.20;99.90;;;;;;5060752;28;20077;-60
2024/02/07 03:27:51;;;;;;;20.52;3.88;;;15.20;99.90;;;;;;5059128;28;20176;-61
2024/02/07 03:30:24;;;;;;;19.00;4.15;;;15.20;99.90;;;;;;5059130;28;20551;-61
2024/02/07 03:32:54;;;;;;;26.98;4.60;;;15.20;99.90;;;;;;5061374;28;20081;-67
2024/02/07 03:35:21;;;;;;;16.95;4.15;;;15.10;99.90;;;;;;5064391;28;20122;-63
2024/02/07 03:37:48;;;;;;;15.20;5.55;;;15.10;99.90;;;;;;5059872;28;20088;-57
2024/02/07 03:40:15;;;;;;;26.58;5.63;;;15.10;99.90;;;;;;5060787;28;20089;-63
2024/02/07 03:42:42;;;;;;;21.42;6.63;;;15.10;99.90;;;;;;5060302;28;20077;-59
2024/02/07 03:45:11;;;;;;;25.42;8.27;;;15.10;99.90;;;;;;5060829;28;20077;-61
2024/02/07 03:47:39;;;;;;;23.13;8.73;;;15.10;99.90;;;;;;5059717;28;20081;-59
2024/02/07 03:50:10;;;;;;;18.27;8.95;;;15.10;99.90;;;;;;5059508;28;20133;-61
2024/02/07 03:52:48;;;;;;;25.67;8.18;;;15.10;99.90;;;;;;5058792;28;20096;-61
2024/02/07 03:55:15;;;;;;;22.38;7.53;;;15.10;99.90;;;;;;5058889;28;20076;-61
2024/02/07 03:57:44;;;;;;;24.40;9.15;;;15.10;99.90;;;;;;5060239;28;20593;-65
2024/02/07 04:00:14;;;;;;;27.50;8.45;;;15.10;99.90;;;;;;5060142;28;20097;-65
2024/02/07 04:02:43;;;;;;;28.67;9.48;;;15.10;99.90;;;;;;5061580;28;20079;-64
2024/02/07 04:05:11;;;;;;;38.90;9.98;;;15.00;99.90;;;;;;5059132;28;20229;-64
2024/02/07 04:07:37;;;;;;;31.88;11.95;;;15.00;99.90;;;;;;5058991;28;20483;-62
2024/02/07 04:10:09;;;;;;;41.60;14.63;;;14.90;99.90;;;;;;5060224;28;20073;-61
2024/02/07 05:15:54;;;;;;;24.20;12.15;;;13.90;99.90;;;;;;5063061;28;20134;-65
2024/02/07 05:18:21;;;;;;;32.00;13.02;;;13.90;99.90;;;;;;5060634;28;20069;-63
2024/02/07 05:20:48;;;;;;;25.30;12.30;;;13.90;99.90;;;;;;5063261;28;20143;-61
2024/02/07 05:23:19;;;;;;;19.45;11.13;;;13.80;99.90;;;;;;5063050;28;20087;-61
2024/02/07 05:25:49;;;;;;;21.10;11.23;;;13.80;99.90;;;;;;5060331;28;20073;-59
2024/02/07 05:28:16;;;;;;;21.00;11.40;;;13.80;99.90;;;;;;5057212;28;20517;-61
2024/02/07 05:30:42;;;;;;;25.00;11.18;;;13.80;99.90;;;;;;5059572;28;20109;-62
2024/02/07 05:33:09;;;;;;;20.70;9.40;;;13.70;99.90;;;;;;5058058;28;20151;-60
2024/02/07 05:35:36;;;;;;;23.58;9.15;;;13.80;99.90;;;;;;5063152;28;20102;-60
2024/02/07 05:38:03;;;;;;;14.70;6.78;;;13.70;99.90;;;;;;5060347;28;20077;-60
2024/02/07 05:40:30;;;;;;;22.98;7.70;;;13.70;99.90;;;;;;5062646;28;20074;-62
2024/02/07 05:42:57;;;;;;;22.80;6.88;;;13.70;99.90;;;;;;5059297;28;20083;-61
2024/02/07 05:45:23;;;;;;;15.38;7.13;;;13.80;99.90;;;;;;5060159;28;20081;-61
2024/02/07 05:47:50;;;;;;;11.27;6.00;;;13.80;99.90;;;;;;5059530;28;20140;-60
2024/02/07 05:50:17;;;;;;;15.45;6.07;;;13.80;99.90;;;;;;5060849;28;20142;-59
2024/02/07 05:52:44;;;;;;;15.93;6.82;;;13.70;99.90;;;;;;5061022;28;20094;-65
2024/02/07 05:55:10;;;;;;;20.33;7.68;;;13.70;99.90;;;;;;5059473;28;20518;-60
2024/02/07 05:57:37;;;;;;;16.25;9.18;;;13.70;99.90;;;;;;5058904;28;20082;-60
2024/02/07 06:00:05;;;;;;;20.38;9.25;;;13.70;99.90;;;;;;5057773;28;20463;-60
2024/02/07 06:02:32;;;;;;;14.45;9.68;;;13.60;99.90;;;;;;5059230;28;20103;-60
2024/02/07 06:05:03;;;;;;;18.02;11.38;;;13.70;99.90;;;;;;5063327;28;20074;-60
2024/02/07 06:07:36;;;;;;;22.90;11.95;;;13.70;99.90;;;;;;5060341;28;20077;-61
2024/02/07 06:10:03;;;;;;;30.25;12.52;;;13.80;99.90;;;;;;5063570;28;20081;-66
2024/02/07 06:12:33;;;;;;;21.98;12.32;;;13.70;99.90;;;;;;5061771;28;20116;-61
2024/02/07 06:15:00;;;;;;;16.17;10.77;;;13.70;99.90;;;;;;5062898;28;20088;-60
2024/02/07 06:17:28;;;;;;;19.80;10.98;;;13.60;99.90;;;;;;5063810;28;20077;-60
2024/02/07 06:19:55;;;;;;;18.83;11.57;;;13.50;99.90;;;;;;5065821;28;20096;-59
2024/02/07 06:22:22;;;;;;;22.98;11.55;;;13.50;99.90;;;;;;5062279;28;20159;-59
2024/02/07 06:24:48;;;;;;;35.30;19.38;;;13.50;99.90;;;;;;5061835;28;20452;-60
2024/02/07 06:27:15;;;;;;;23.77;11.40;;;13.50;99.90;;;;;;5064090;28;20525;-59
2024/02/07 06:29:41;;;;;;;21.88;11.15;;;13.40;99.90;;;;;;5060981;28;20165;-60
2024/02/07 06:32:08;;;;;;;22.90;10.88;;;13.40;99.90;;;;;;5060871;28;20150;-62
2024/02/07 06:34:36;;;;;;;19.25;10.98;;;13.40;99.90;;;;;;5066108;28;20140;-57
2024/02/07 06:37:03;;;;;;;18.55;11.02;;;13.40;99.90;;;;;;5067026;28;20077;-59
2024/02/07 06:39:30;;;;;;;20.05;10.77;;;13.30;99.90;;;;;;5061960;28;20086;-58
2024/02/07 06:41:56;;;;;;;19.20;10.00;;;13.30;99.90;;;;;;5060100;28;20085;-65
2024/02/07 06:44:23;;;;;;;16.25;10.90;;;13.20;99.90;;;;;;5061425;28;20077;-61
2024/02/07 06:46:49;;;;;;;19.60;10.85;;;13.10;99.90;;;;;;5062628;28;20085;-59
2024/02/07 06:49:16;;;;;;;19.83;10.13;;;13.10;99.90;;;;;;5063864;28;20207;-62
2024/02/07 06:51:42;;;;;;;22.98;10.48;;;13.00;99.90;;;;;;5063523;28;20109;-58
2024/02/07 06:54:09;;;;;;;20.40;11.13;;;13.00;99.90;;;;;;5062885;28;20081;-64
2024/02/07 06:56:36;;;;;;;21.30;10.90;;;13.00;99.90;;;;;;5066386;28;20134;-60
2024/02/07 06:59:02;;;;;;;18.48;11.57;;;13.00;99.90;;;;;;5062278;28;20164;-59
2024/02/07 07:01:29;;;;;;;27.58;11.30;;;12.90;99.90;;;;;;5061606;28;20123;-59
2024/02/07 07:03:57;;;;;;;22.15;11.02;;;12.90;99.90;;;;;;5063218;28;20180;-63
2024/02/07 07:06:26;;;;;;;20.05;10.63;;;12.90;99.90;;;;;;5065186;28;20152;-60
2024/02/07 07:08:52;;;;;;;22.70;10.05;;;12.90;99.90;;;;;;5062964;28;20077;-60
2024/02/07 07:11:19;;;;;;;20.65;10.23;;;12.80;99.90;;;;;;5061303;28;20511;-59
2024/02/07 07:13:45;;;;;;;19.05;9.18;;;12.90;99.90;;;;;;5064031;28;20078;-59
2024/02/07 07:16:11;;;;;;;15.57;7.70;;;12.90;99.90;;;;;;5064094;28;20525;-62
2024/02/07 07:18:38;;;;;;;19.60;8.80;;;13.00;99.90;;;;;;5063357;28;20080;-59
2024/02/07 07:21:04;;;;;;;13.77;6.68;;;13.00;99.90;;;;;;5058708;28;20478;-59
2024/02/07 07:23:31;;;;;;;10.32;5.20;;;13.10;99.90;;;;;;5064753;28;20499;-62
2024/02/07 07:25:57;;;;;;;10.50;4.85;;;13.10;99.90;;;;;;5062563;28;20076;-60
2024/02/07 07:28:24;;;;;;;5.88;2.28;;;13.10;99.90;;;;;;5062305;28;20521;-65
2024/02/07 07:30:52;;;;;;;6.88;1.70;;;13.30;99.90;;;;;;5060570;28;20188;-61
2024/02/07 07:33:19;;;;;;;2.60;1.00;;;13.40;99.90;;;;;;5061388;28;20168;-60
2024/02/07 07:35:45;;;;;;;3.15;0.82;;;13.60;99.90;;;;;;5063387;28;20107;-59
2024/02/07 07:38:12;;;;;;;4.00;0.80;;;13.70;99.90;;;;;;5062939;28;20069;-61
2024/02/07 07:40:39;;;;;;;1.95;0.77;;;13.80;99.90;;;;;;5062619;28;20069;-64
2024/02/07 07:43:05;;;;;;;1.70;0.70;;;13.80;99.90;;;;;;5060729;28;20924;-61
2024/02/07 07:45:32;;;;;;;2.28;0.75;;;14.00;99.90;;;;;;5062008;28;20077;-61
2024/02/07 07:47:58;;;;;;;3.22;0.75;;;14.00;99.90;;;;;;5062768;28;20484;-61
2024/02/07 07:50:25;;;;;;;2.35;0.65;;;14.00;99.90;;;;;;5064485;28;20073;-61
2024/02/07 07:52:52;;;;;;;2.50;0.73;;;14.00;99.90;;;;;;5061242;28;20077;-62
2024/02/07 07:55:21;;;;;;;3.92;0.93;;;14.00;99.90;;;;;;5062439;28;20101;-60
2024/02/07 07:57:48;;;;;;;4.28;1.20;;;13.90;99.90;;;;;;5061042;28;20111;-61
2024/02/07 08:00:15;;;;;;;2.63;1.10;;;14.00;99.90;;;;;;5062916;28;20073;-60
2024/02/07 08:02:41;;;;;;;1.80;1.02;;;13.90;99.90;;;;;;5063355;28;20139;-61
2024/02/07 08:05:08;;;;;;;5.60;1.27;;;13.90;99.90;;;;;;5061324;28;20083;-61
2024/02/07 08:07:34;;;;;;;2.25;0.50;;;13.90;99.90;;;;;;5062166;28;20607;-62
2024/02/07 08:10:01;;;;;;;2.08;0.70;;;14.00;99.90;;;;;;5063625;28;20475;-61
2024/02/07 08:12:27;;;;;;;1.85;0.70;;;14.00;99.90;;;;;;5059978;28;20200;-62
2024/02/07 08:14:54;;;;;;;2.55;0.73;;;14.00;99.90;;;;;;5061377;28;20162;-61
2024/02/07 08:17:20;;;;;;;3.10;1.00;;;14.00;99.90;;;;;;5062765;28;20083;-62
2024/02/07 08:19:47;;;;;;;1.40;0.60;;;14.00;99.90;;;;;;5061784;28;20119;-61
2024/02/07 08:22:14;;;;;;;3.10;0.73;;;14.00;99.90;;;;;;5062291;28;20081;-62
2024/02/07 08:24:40;;;;;;;2.45;0.70;;;14.00;99.90;;;;;;5060865;28;20594;-61
2024/02/07 08:27:07;;;;;;;2.03;0.60;;;14.00;99.90;;;;;;5059460;28;20077;-62
2024/02/07 08:29:33;;;;;;;2.03;0.50;;;14.00;99.90;;;;;;5059158;28;20079;-62
2024/02/07 08:32:01;;;;;;;3.40;0.68;;;14.00;99.90;;;;;;5060058;28;20103;-63
2024/02/07 08:34:27;;;;;;;2.25;0.68;;;14.00;99.90;;;;;;5060440;28;20085;-61
2024/02/07 08:36:53;;;;;;;3.38;0.55;;;14.10;99.90;;;;;;5057712;28;20073;-61
2024/02/07 08:39:20;;;;;;;7.53;0.50;;;14.00;99.90;;;;;;5057101;28;20440;-63
2024/02/07 08:41:46;;;;;;;0.38;0.30;;;14.00;99.90;;;;;;5060717;28;20433;-60
2024/02/07 08:44:13;;;;;;;0.80;0.43;;;14.00;99.90;;;;;;5056895;28;20073;-60
2024/02/07 08:46:40;;;;;;;1.30;0.22;;;14.00;99.90;;;;;;5058031;28;20557;-60
2024/02/07 08:49:07;;;;;;;2.05;0.30;;;14.00;99.90;;;;;;5058871;28;20159;-61
2024/02/07 08:51:33;;;;;;;0.63;0.40;;;14.00;99.90;;;;;;5056749;28;20097;-60
2024/02/07 08:54:00;;;;;;;3.53;0.55;;;14.00;99.90;;;;;;5057766;28;20453;-59
2024/02/07 08:56:28;;;;;;;14.05;9.57;;;13.90;99.90;;;;;;5056685;28;21027;-60
2024/02/07 08:58:55;;;;;;;1.05;0.32;;;13.80;99.90;;;;;;5056851;28;20092;-60
2024/02/07 09:01:22;;;;;;;1.85;0.50;;;13.80;99.90;;;;;;5056482;28;20124;-59
2024/02/07 09:03:48;;;;;;;0.65;0.43;;;13.90;99.90;;;;;;5058134;28;20170;-60
2024/02/07 09:06:15;;;;;;;1.30;0.50;;;13.70;99.90;;;;;;5058710;28;20552;-59
2024/02/07 09:08:42;;;;;;;0.43;0.40;;;13.70;99.90;;;;;;5057674;28;20073;-60
2024/02/07 09:11:08;;;;;;;0.82;0.40;;;13.60;99.90;;;;;;5059316;28;20116;-60
2024/02/07 09:13:35;;;;;;;3.10;0.50;;;13.60;99.90;;;;;;5058299;28;20163;-60
2024/02/07 09:16:01;;;;;;;2.15;0.60;;;13.60;99.90;;;;;;5059377;28;20073;-59
2024/02/07 09:18:28;;;;;;;1.17;0.57;;;13.50;99.90;;;;;;5058736;28;20182;-61
2024/02/07 09:20:54;;;;;;;2.53;0.60;;;13.50;99.90;;;;;;5056583;28;20464;-60
2024/02/07 09:23:21;;;;;;;1.48;0.50;;;13.40;99.90;;;;;;5056248;28;20073;-60
2024/02/07 09:25:47;;;;;;;0.80;0.30;;;13.40;99.90;;;;;;5060290;28;20594;-61
2024/02/07 09:28:13;;;;;;;0.68;0.32;;;13.40;99.90;;;;;;5058555;28;20075;-60
2024/02/07 09:30:40;;;;;;;0.30;0.30;;;13.40;99.90;;;;;;5056919;28;20168;-59
2024/02/07 09:33:06;;;;;;;1.75;0.38;;;13.40;99.90;;;;;;5058835;28;20073;-61
2024/02/07 09:35:33;;;;;;;0.88;0.32;;;13.50;99.90;;;;;;5057916;28;20076;-62
2024/02/07 09:37:59;;;;;;;0.90;0.40;;;13.50;99.90;;;;;;5058181;28;20081;-62
2024/02/07 09:40:26;;;;;;;0.82;0.50;;;13.50;99.90;;;;;;5056555;28;20080;-60
2024/02/07 09:42:53;;;;;;;2.13;0.25;;;13.50;99.90;;;;;;5059036;28;20180;-60
2024/02/07 09:45:19;;;;;;;0.70;0.40;;;13.50;99.90;;;;;;5061496;28;20073;-60
2024/02/07 09:47:56;;;;;;;3.28;0.40;;;13.50;99.90;;;;;;5062346;28;20116;-60
2024/02/07 09:50:22;;;;;;;2.60;0.60;;;13.50;99.90;;;;;;5062169;28;20096;-61
2024/02/07 09:52:51;;;;;;;2.85;0.50;;;13.50;99.90;;;;;;5061492;28;20127;-61
2024/02/07 09:55:18;;;;;;;2.03;0.60;;;13.60;99.90;;;;;;5062204;28;20080;-61
2024/02/07 09:57:47;;;;;;;1.98;0.70;;;13.60;99.90;;;;;;5061290;28;21200;-62
2024/02/07 10:00:14;;;;;;;1.65;0.47;;;13.60;99.90;;;;;;5062933;28;20100;-60
2024/02/07 10:02:47;;;;;;;0.85;0.50;;;13.60;99.90;;;;;;5062299;28;20196;-62
2024/02/07 10:05:17;;;;;;;0.60;0.50;;;13.60;99.90;;;;;;5061776;28;20156;-61
2024/02/07 10:07:44;;;;;;;1.50;0.60;;;13.60;99.90;;;;;;5061984;28;20374;-60
2024/02/07 10:10:11;;;;;;;0.85;0.57;;;13.60;99.90;;;;;;5063188;28;20073;-61
2024/02/07 10:12:38;;;;;;;0.95;0.50;;;13.60;99.90;;;;;;5064189;28;20119;-61
2024/02/07 10:15:05;;;;;;;0.95;0.60;;;13.60;99.90;;;;;;5062094;28;20525;-61
2024/02/07 10:17:32;;;;;;;1.05;0.50;;;13.60;99.90;;;;;;5061722;28;20069;-62
2024/02/07 10:19:58;;;;;;;2.97;0.70;;;13.60;99.90;;;;;;5062495;28;20126;-61
2024/02/07 10:22:25;;;;;;;2.25;1.20;;;13.60;99.90;;;;;;5062289;28;20069;-61
2024/02/07 10:24:51;;;;;;;4.28;0.93;;;13.60;99.90;;;;;;5061303;28;20487;-60
2024/02/07 10:27:19;;;;;;;2.83;1.05;;;13.50;99.90;;;;;;5060648;28;20080;-59
2024/02/07 10:29:46;;;;;;;5.18;1.30;;;13.50;99.90;;;;;;5060979;28;20078;-59
2024/02/07 10:32:17;;;;;;;3.60;1.13;;;13.60;99.90;;;;;;5066191;28;20196;-61
2024/02/07 10:34:52;;;;;;;4.43;1.23;;;13.60;99.90;;;;;;5062313;28;20119;-61
2024/02/07 10:37:19;;;;;;;1.48;0.75;;;13.60;99.90;;;;;;5062250;28;20076;-60
2024/02/07 10:39:46;;;;;;;3.47;1.00;;;13.60;99.90;;;;;;5060176;28;20077;-60
2024/02/07 10:42:15;;;;;;;3.50;1.00;;;13.60;99.90;;;;;;5061996;28;20451;-60
2024/02/07 10:44:41;;;;;;;2.58;0.88;;;13.70;99.90;;;;;;5060510;28;20103;-61
2024/02/07 10:47:12;;;;;;;3.00;0.80;;;13.70;99.90;;;;;;5061793;28;20108;-61
2024/02/07 10:49:39;;;;;;;1.95;0.73;;;13.70;99.90;;;;;;5059209;28;20120;-60
2024/02/07 10:52:11;;;;;;;5.57;0.88;;;13.80;99.90;;;;;;5060761;28;20105;-59
2024/02/07 10:54:38;;;;;;;1.85;0.70;;;13.80;99.90;;;;;;5059241;28;20086;-60
2024/02/07 10:57:05;;;;;;;1.48;0.63;;;13.90;99.90;;;;;;5060673;28;20541;-60
2024/02/07 10:59:33;;;;;;;1.23;0.57;;;14.00;99.90;;;;;;5056893;28;20073;-60
2024/02/07 11:02:00;;;;;;;2.05;0.52;;;14.00;99.90;;;;;;5057515;28;20077;-60
2024/02/07 11:04:27;;;;;;;1.35;0.60;;;14.00;99.90;;;;;;5059507;28;20214;-60
2024/02/07 11:06:53;;;;;;;0.73;0.47;;;14.00;99.90;;;;;;5058887;28;21096;-60
2024/02/07 11:09:20;;;;;;;3.30;0.70;;;14.00;99.90;;;;;;5061893;28;20081;-60
2024/02/07 11:11:47;;;;;;;3.22;0.88;;;14.00;99.90;;;;;;5059508;28;20101;-60
2024/02/07 11:14:14;;;;;;;1.20;0.70;;;14.00;99.90;;;;;;5060993;28;20070;-60
2024/02/07 11:16:41;;;;;;;4.20;0.88;;;13.90;99.90;;;;;;5060748;28;20175;-61
2024/02/07 11:19:08;;;;;;;1.60;0.70;;;13.90;99.90;;;;;;5059186;28;20077;-60
2024/02/07 11:21:38;;;;;;;2.47;1.05;;;13.70;99.90;;;;;;5059881;28;20788;-60
2024/02/07 11:24:06;;;;;;;3.70;0.82;;;13.60;99.90;;;;;;5060153;28;20101;-60
2024/02/07 11:26:33;;;;;;;2.97;0.90;;;13.60;99.90;;;;;;5059891;28;20072;-60
2024/02/07 11:29:00;;;;;;;1.75;0.80;;;13.60;99.90;;;;;;5058325;28;20160;-59
2024/02/07 11:31:30;;;;;;;2.80;0.77;;;13.50;99.90;;;;;;5060035;28;20102;-61
2024/02/07 11:33:56;;;;;;;2.35;0.73;;;13.40;99.90;;;;;;5057826;28;20416;-61
2024/02/07 11:36:23;;;;;;;5.47;1.02;;;13.40;99.90;;;;;;5059895;28;20436;-60
2024/02/07 11:38:58;;;;;;;0.98;0.70;;;13.30;99.90;;;;;;5061038;28;20081;-60
2024/02/07 11:41:25;;;;;;;4.18;0.65;;;13.20;99.90;;;;;;5059523;28;20065;-61
2024/02/07 11:43:54;;;;;;;2.55;1.10;;;13.20;99.90;;;;;;5060681;28;20089;-61
2024/02/07 11:46:24;;;;;;;2.22;0.80;;;13.10;99.90;;;;;;5058184;28;20073;-61
2024/02/07 11:48:52;;;;;;;2.28;0.60;;;13.10;99.90;;;;;;5060723;28;20186;-60
2024/02/07 11:51:20;;;;;;;0.90;0.70;;;13.10;99.90;;;;;;5058782;28;20219;-60
2024/02/07 11:53:46;;;;;;;2.67;1.00;;;13.10;99.90;;;;;;5057687;28;20454;-60
2024/02/07 11:56:18;;;;;;;1.55;0.82;;;13.10;99.90;;;;;;5058472;28;20109;-61
2024/02/07 11:58:46;;;;;;;2.08;0.70;;;13.10;99.90;;;;;;5057716;28;20179;-60
2024/02/07 12:01:13;;;;;;;1.58;0.68;;;13.10;99.90;;;;;;5060005;28;20073;-60
2024/02/07 12:03:39;;;;;;;1.70;0.70;;;13.20;99.90;;;;;;5056635;28;20072;-60
2024/02/07 12:06:11;;;;;;;1.52;0.70;;;13.20;99.90;;;;;;5060552;28;20078;-60
2024/02/07 12:08:38;;;;;;;2.20;0.68;;;13.20;99.90;;;;;;5058788;28;20081;-60
2024/02/07 12:11:06;;;;;;;0.93;0.55;;;13.20;99.90;;;;;;5062448;28;20476;-60
2024/02/07 12:13:33;;;;;;;4.90;0.60;;;13.20;99.90;;;;;;5060182;28;20128;-61
2024/02/07 12:16:08;;;;;;;1.58;0.68;;;13.20;99.90;;;;;;5060753;28;20077;-60
2024/02/07 12:18:35;;;;;;;2.78;1.10;;;13.20;99.90;;;;;;5058924;28;20080;-61
2024/02/07 12:21:03;;;;;;;2.80;1.23;;;13.20;99.90;;;;;;5059528;28;20076;-61
2024/02/07 12:23:31;;;;;;;3.45;1.02;;;13.30;99.90;;;;;;5058248;28;20160;-59
2024/02/07 12:26:02;;;;;;;2.00;0.82;;;13.30;99.90;;;;;;5058397;28;20081;-60
2024/02/07 12:28:29;;;;;;;4.15;1.05;;;13.20;99.90;;;;;;5059262;28;20077;-60
2024/02/07 12:30:59;;;;;;;4.53;1.00;;;13.20;99.90;;;;;;5058098;28;20565;-60
2024/02/07 12:33:27;;;;;;;2.90;0.80;;;13.20;99.90;;;;;;5056790;28;20081;-60
2024/02/07 12:35:58;;;;;;;2.92;0.50;;;13.10;99.90;;;;;;5059998;28;20073;-60
2024/02/07 12:38:24;;;;;;;1.92;0.68;;;13.10;99.90;;;;;;5056589;28;20160;-60
2024/02/07 12:40:53;;;;;;;0.75;0.45;;;13.10;99.90;;;;;;5057013;28;20073;-60
2024/02/07 12:43:24;;;;;;;1.48;0.60;;;13.00;99.90;;;;;;5056220;28;20073;-61
2024/02/07 12:45:56;;;;;;;0.88;0.38;;;13.00;99.90;;;;;;5060429;28;20084;-60
2024/02/07 12:48:23;;;;;;;1.35;0.50;;;13.00;99.90;;;;;;5060699;28;20190;-61
2024/02/07 12:50:51;;;;;;;0.65;0.40;;;13.00;99.90;;;;;;5056835;28;20073;-61
2024/02/07 12:53:17;;;;;;;0.95;0.40;;;13.00;99.90;;;;;;5058008;28;20080;-61
2024/02/07 12:55:49;;;;;;;1.83;0.40;;;13.00;99.90;;;;;;5057534;28;20081;-59
2024/02/07 12:58:16;;;;;;;0.45;0.30;;;13.00;99.90;;;;;;5057065;28;20092;-60
2024/02/07 13:00:43;;;;;;;0.90;0.30;;;13.10;99.90;;;;;;5057642;28;20120;-60
2024/02/07 13:03:11;;;;;;;0.80;0.40;;;13.00;99.90;;;;;;5057934;28;20115;-61
2024/02/07 13:05:39;;;;;;;0.80;0.40;;;13.00;99.90;;;;;;5056921;28;20160;-61
2024/02/07 13:08:10;;;;;;;0.65;0.20;;;12.90;99.90;;;;;;5058026;28;20156;-60
2024/02/07 13:10:40;;;;;;;2.17;0.40;;;12.90;99.90;;;;;;5058375;28;20099;-60
2024/02/07 13:13:06;;;;;;;0.50;0.40;;;12.80;99.90;;;;;;5057247;28;20082;-60
2024/02/07 13:15:33;;;;;;;1.58;0.60;;;12.70;99.90;;;;;;5058016;28;21063;-60
2024/02/07 13:18:02;;;;;;;1.30;0.60;;;12.50;99.90;;;;;;5055741;28;20073;-61
2024/02/07 13:20:28;;;;;;;2.97;0.57;;;12.50;99.90;;;;;;5057752;28;20073;-60
2024/02/07 13:22:54;;;;;;;0.73;0.40;;;12.50;99.90;;;;;;5057788;28;20085;-60
2024/02/07 13:25:22;;;;;;;1.65;0.50;;;12.50;99.90;;;;;;5056011;28;20108;-62
2024/02/07 13:27:48;;;;;;;2.00;0.68;;;12.50;99.90;;;;;;5057130;28;20066;-61
2024/02/07 13:30:16;;;;;;;1.70;0.70;;;12.50;99.90;;;;;;5059941;28;20825;-60
2024/02/07 13:32:44;;;;;;;3.13;0.70;;;12.60;99.90;;;;;;5055213;28;20108;-61
2024/02/07 13:35:11;;;;;;;1.40;0.52;;;12.50;99.90;;;;;;5056881;28;20813;-61
2024/02/07 13:37:37;;;;;;;1.40;0.57;;;12.60;99.90;;;;;;5057176;28;20073;-61
2024/02/07 13:40:04;;;;;;;0.38;0.38;;;12.60;99.90;;;;;;5057587;28;20588;-60
2024/02/07 13:42:30;;;;;;;1.38;0.60;;;12.60;99.90;;;;;;5056295;28;21791;-60
2024/02/07 13:44:57;;;;;;;1.00;0.60;;;12.60;99.90;;;;;;5058242;28;20073;-60
2024/02/07 13:47:23;;;;;;;3.80;0.80;;;12.60;99.90;;;;;;5055908;28;20532;-59
2024/02/07 13:49:50;;;;;;;1.65;0.70;;;12.60;99.90;;;;;;5056368;28;20084;-61
2024/02/07 13:52:16;;;;;;;;;;;12.60;99.90;;;;;;5060477;28;20108;-60